sensor_id;sensor_type;location;lat;lon;timestamp;temperature;humidity
4411;DHT22;2218;51.408;7.208;2023-05-10T00:00:46;21.50;51.90
4411;DHT22;2218;51.408;7.208;2023-05-10T00:03:13;21.50;52.40
4411;DHT22;2218;51.408;7.208;2023-05-10T00:05:41;21.40;51.80
4411;DHT22;2218;51.408;7.208;2023-05-10T00:08:08;21.40;51.80
4411;DHT22;2218;51.408;7.208;2023-05-10T00:10:35;21.40;51.80
4411;DHT22;2218;51.408;7.208;2023-05-10T00:13:03;21.50;51.90
4411;DHT22;2218;51.408;7.208;2023-05-10T00:15:30;21.40;52.30
4411;DHT22;2218;51.408;7.208;2023-05-10T00:17:57;21.40;51.80
4411;DHT22;2218;51.408;7.208;2023-05-10T00:20:24;21.40;51.80
4411;DHT22;2218;51.408;7.208;2023-05-10T00:22:52;21.40;51.70
4411;DHT22;2218;51.408;7.208;2023-05-10T00:25:19;21.40;51.80
4411;DHT22;2218;51.408;7.208;2023-05-10T00:27:47;21.40;51.80
4411;DHT22;2218;51.408;7.208;2023-05-10T00:30:14;21.40;51.80
4411;DHT22;2218;51.408;7.208;2023-05-10T00:32:41;21.40;51.80
4411;DHT22;2218;51.408;7.208;2023-05-10T00:35:08;21.40;51.80
4411;DHT22;2218;51.408;7.208;2023-05-10T00:37:36;21.40;51.80
4411;DHT22;2218;51.408;7.208;2023-05-10T00:40:05;21.40;51.80
4411;DHT22;2218;51.408;7.208;2023-05-10T00:42:33;21.40;51.80
4411;DHT22;2218;51.408;7.208;2023-05-10T00:45:00;21.40;51.70
4411;DHT22;2218;51.408;7.208;2023-05-10T00:47:28;21.40;51.80
4411;DHT22;2218;51.408;7.208;2023-05-10T00:49:55;21.40;51.80
4411;DHT22;2218;51.408;7.208;2023-05-10T00:52:23;21.40;51.80
4411;DHT22;2218;51.408;7.208;2023-05-10T00:54:51;21.40;51.80
4411;DHT22;2218;51.408;7.208;2023-05-10T00:57:20;21.40;51.80
4411;DHT22;2218;51.408;7.208;2023-05-10T00:59:48;21.40;51.70
4411;DHT22;2218;51.408;7.208;2023-05-10T01:02:15;21.40;51.80
4411;DHT22;2218;51.408;7.208;2023-05-10T01:04:43;21.40;51.70
4411;DHT22;2218;51.408;7.208;2023-05-10T01:07:10;21.40;51.70
4411;DHT22;2218;51.408;7.208;2023-05-10T01:09:37;21.40;52.30
4411;DHT22;2218;51.408;7.208;2023-05-10T01:12:05;21.40;51.80
4411;DHT22;2218;51.408;7.208;2023-05-10T01:14:35;21.40;51.70
4411;DHT22;2218;51.408;7.208;2023-05-10T01:17:03;21.40;51.80
4411;DHT22;2218;51.408;7.208;2023-05-10T01:19:31;21.40;51.80
4411;DHT22;2218;51.408;7.208;2023-05-10T01:22:10;21.40;51.70
4411;DHT22;2218;51.408;7.208;2023-05-10T01:25:11;21.40;51.70
4411;DHT22;2218;51.408;7.208;2023-05-10T01:28:16;21.40;51.70
4411;DHT22;2218;51.408;7.208;2023-05-10T01:31:21;21.30;51.60
4411;DHT22;2218;51.408;7.208;2023-05-10T01:34:01;21.40;51.70
4411;DHT22;2218;51.408;7.208;2023-05-10T01:36:41;21.30;51.60
4411;DHT22;2218;51.408;7.208;2023-05-10T01:39:17;21.30;51.60
4411;DHT22;2218;51.408;7.208;2023-05-10T01:41:54;21.30;51.60
4411;DHT22;2218;51.408;7.208;2023-05-10T01:44:33;21.30;51.60
4411;DHT22;2218;51.408;7.208;2023-05-10T01:47:09;21.30;51.60
4411;DHT22;2218;51.408;7.208;2023-05-10T01:49:43;21.30;51.60
4411;DHT22;2218;51.408;7.208;2023-05-10T01:52:16;21.30;51.60
4411;DHT22;2218;51.408;7.208;2023-05-10T01:54:50;21.30;51.60
4411;DHT22;2218;51.408;7.208;2023-05-10T01:57:22;21.30;51.60
4411;DHT22;2218;51.408;7.208;2023-05-10T01:59:54;21.30;52.10
4411;DHT22;2218;51.408;7.208;2023-05-10T02:02:24;21.30;51.60
4411;DHT22;2218;51.408;7.208;2023-05-10T02:04:54;21.30;51.60
4411;DHT22;2218;51.408;7.208;2023-05-10T02:07:24;21.30;51.60
4411;DHT22;2218;51.408;7.208;2023-05-10T02:09:53;21.30;51.60
4411;DHT22;2218;51.408;7.208;2023-05-10T02:12:23;21.30;51.60
4411;DHT22;2218;51.408;7.208;2023-05-10T02:14:53;21.30;51.60
4411;DHT22;2218;51.408;7.208;2023-05-10T02:17:21;21.30;51.60
4411;DHT22;2218;51.408;7.208;2023-05-10T02:19:51;21.30;51.60
4411;DHT22;2218;51.408;7.208;2023-05-10T02:22:23;21.30;51.60
4411;DHT22;2218;51.408;7.208;2023-05-10T02:24:52;21.30;51.60
4411;DHT22;2218;51.408;7.208;2023-05-10T02:27:22;21.30;51.60
4411;DHT22;2218;51.408;7.208;2023-05-10T02:29:50;21.30;51.50
4411;DHT22;2218;51.408;7.208;2023-05-10T02:32:19;21.30;51.50
4411;DHT22;2218;51.408;7.208;2023-05-10T02:34:49;21.30;51.60
4411;DHT22;2218;51.408;7.208;2023-05-10T02:37:19;21.20;51.50
4411;DHT22;2218;51.408;7.208;2023-05-10T02:39:48;21.30;51.60
4411;DHT22;2218;51.408;7.208;2023-05-10T02:42:18;21.30;51.50
4411;DHT22;2218;51.408;7.208;2023-05-10T02:44:51;21.30;51.50
4411;DHT22;2218;51.408;7.208;2023-05-10T02:47:20;21.30;51.60
4411;DHT22;2218;51.408;7.208;2023-05-10T02:49:48;21.30;51.50
4411;DHT22;2218;51.408;7.208;2023-05-10T02:52:30;21.30;51.50
4411;DHT22;2218;51.408;7.208;2023-05-10T02:55:06;21.30;51.50
4411;DHT22;2218;51.408;7.208;2023-05-10T02:57:41;21.20;51.40
4411;DHT22;2218;51.408;7.208;2023-05-10T03:00:12;21.30;51.50
4411;DHT22;2218;51.408;7.208;2023-05-10T03:02:39;21.30;51.40
4411;DHT22;2218;51.408;7.208;2023-05-10T03:05:07;21.30;51.40
4411;DHT22;2218;51.408;7.208;2023-05-10T03:07:36;21.30;51.40
4411;DHT22;2218;51.408;7.208;2023-05-10T03:10:05;21.30;51.40
4411;DHT22;2218;51.408;7.208;2023-05-10T03:12:47;21.30;51.40
4411;DHT22;2218;51.408;7.208;2023-05-10T03:15:31;21.30;51.40
4411;DHT22;2218;51.408;7.208;2023-05-10T03:18:07;21.20;51.30
4411;DHT22;2218;51.408;7.208;2023-05-10T03:20:41;21.30;51.40
4411;DHT22;2218;51.408;7.208;2023-05-10T03:23:19;21.20;51.30
4411;DHT22;2218;51.408;7.208;2023-05-10T03:25:50;21.20;51.80
4411;DHT22;2218;51.408;7.208;2023-05-10T03:28:18;21.30;51.40
4411;DHT22;2218;51.408;7.208;2023-05-10T03:30:47;21.20;51.30
4411;DHT22;2218;51.408;7.208;2023-05-10T03:33:15;21.30;51.40
4411;DHT22;2218;51.408;7.208;2023-05-10T03:35:45;21.20;51.30
4411;DHT22;2218;51.408;7.208;2023-05-10T03:38:14;21.20;51.30
4411;DHT22;2218;51.408;7.208;2023-05-10T03:40:41;21.20;51.20
4411;DHT22;2218;51.408;7.208;2023-05-10T03:43:08;21.20;51.30
4411;DHT22;2218;51.408;7.208;2023-05-10T03:45:35;21.20;51.20
4411;DHT22;2218;51.408;7.208;2023-05-10T03:48:02;21.20;51.20
4411;DHT22;2218;51.408;7.208;2023-05-10T03:50:29;21.20;51.20
4411;DHT22;2218;51.408;7.208;2023-05-10T03:52:56;21.20;51.20
4411;DHT22;2218;51.408;7.208;2023-05-10T03:55:25;21.20;51.20
4411;DHT22;2218;51.408;7.208;2023-05-10T03:57:52;21.20;51.20
4411;DHT22;2218;51.408;7.208;2023-05-10T04:00:21;21.20;51.10
4411;DHT22;2218;51.408;7.208;2023-05-10T04:02:51;21.20;51.10
4411;DHT22;2218;51.408;7.208;2023-05-10T04:05:19;21.20;51.10
4411;DHT22;2218;51.408;7.208;2023-05-10T04:07:46;21.20;51.10
4411;DHT22;2218;51.408;7.208;2023-05-10T04:10:14;21.20;51.10
4411;DHT22;2218;51.408;7.208;2023-05-10T04:12:44;21.20;51.10
4411;DHT22;2218;51.408;7.208;2023-05-10T04:15:11;21.20;51.10
4411;DHT22;2218;51.408;7.208;2023-05-10T04:17:38;21.20;51.10
4411;DHT22;2218;51.408;7.208;2023-05-10T04:20:06;21.20;51.00
4411;DHT22;2218;51.408;7.208;2023-05-10T04:22:34;21.20;51.00
4411;DHT22;2218;51.408;7.208;2023-05-10T04:25:01;21.20;51.10
4411;DHT22;2218;51.408;7.208;2023-05-10T04:27:27;21.20;51.10
4411;DHT22;2218;51.408;7.208;2023-05-10T04:29:56;21.20;51.00
4411;DHT22;2218;51.408;7.208;2023-05-10T04:32:23;21.20;51.00
4411;DHT22;2218;51.408;7.208;2023-05-10T04:34:50;21.20;51.00
4411;DHT22;2218;51.408;7.208;2023-05-10T04:37:17;21.20;51.00
4411;DHT22;2218;51.408;7.208;2023-05-10T04:39:44;21.20;50.90
4411;DHT22;2218;51.408;7.208;2023-05-10T04:42:11;21.20;51.00
4411;DHT22;2218;51.408;7.208;2023-05-10T04:44:40;21.20;50.90
4411;DHT22;2218;51.408;7.208;2023-05-10T04:47:09;21.20;50.90
4411;DHT22;2218;51.408;7.208;2023-05-10T04:49:37;21.20;50.90
4411;DHT22;2218;51.408;7.208;2023-05-10T04:52:04;21.20;50.90
4411;DHT22;2218;51.408;7.208;2023-05-10T04:54:31;21.20;50.90
4411;DHT22;2218;51.408;7.208;2023-05-10T04:56:58;21.20;50.80
4411;DHT22;2218;51.408;7.208;2023-05-10T04:59:24;21.20;50.90
4411;DHT22;2218;51.408;7.208;2023-05-10T05:01:52;21.20;50.90
4411;DHT22;2218;51.408;7.208;2023-05-10T05:04:20;21.20;50.90
4411;DHT22;2218;51.408;7.208;2023-05-10T05:06:48;21.20;50.90
4411;DHT22;2218;51.408;7.208;2023-05-10T05:09:15;21.20;50.90
4411;DHT22;2218;51.408;7.208;2023-05-10T05:11:42;21.20;51.00
4411;DHT22;2218;51.408;7.208;2023-05-10T05:14:09;21.20;50.90
4411;DHT22;2218;51.408;7.208;2023-05-10T05:16:36;21.20;50.90
4411;DHT22;2218;51.408;7.208;2023-05-10T05:19:03;21.20;50.90
4411;DHT22;2218;51.408;7.208;2023-05-10T05:21:32;21.20;51.00
4411;DHT22;2218;51.408;7.208;2023-05-10T05:23:58;21.20;51.00
4411;DHT22;2218;51.408;7.208;2023-05-10T05:26:26;21.20;51.00
4411;DHT22;2218;51.408;7.208;2023-05-10T05:28:53;21.20;51.00
4411;DHT22;2218;51.408;7.208;2023-05-10T05:31:20;21.20;51.00
4411;DHT22;2218;51.408;7.208;2023-05-10T05:33:47;21.20;51.00
4411;DHT22;2218;51.408;7.208;2023-05-10T05:36:14;21.10;50.90
4411;DHT22;2218;51.408;7.208;2023-05-10T05:38:43;21.20;50.90
4411;DHT22;2218;51.408;7.208;2023-05-10T05:41:10;21.20;50.90
4411;DHT22;2218;51.408;7.208;2023-05-10T05:43:37;21.20;50.90
4411;DHT22;2218;51.408;7.208;2023-05-10T05:46:04;21.20;51.00
4411;DHT22;2218;51.408;7.208;2023-05-10T05:48:31;21.20;51.00
4411;DHT22;2218;51.408;7.208;2023-05-10T05:50:58;21.20;51.00
4411;DHT22;2218;51.408;7.208;2023-05-10T05:53:25;21.20;51.00
4411;DHT22;2218;51.408;7.208;2023-05-10T05:55:54;21.20;51.00
4411;DHT22;2218;51.408;7.208;2023-05-10T05:58:23;21.20;51.00
4411;DHT22;2218;51.408;7.208;2023-05-10T06:00:51;21.20;51.00
4411;DHT22;2218;51.408;7.208;2023-05-10T06:03:18;21.20;51.00
4411;DHT22;2218;51.408;7.208;2023-05-10T06:05:46;21.10;50.90
4411;DHT22;2218;51.408;7.208;2023-05-10T06:08:14;21.20;51.00
4411;DHT22;2218;51.408;7.208;2023-05-10T06:10:41;21.20;51.50
4411;DHT22;2218;51.408;7.208;2023-05-10T06:13:09;21.10;50.90
4411;DHT22;2218;51.408;7.208;2023-05-10T06:15:36;21.20;51.00
4411;DHT22;2218;51.408;7.208;2023-05-10T06:18:03;21.20;51.00
4411;DHT22;2218;51.408;7.208;2023-05-10T06:20:30;21.20;50.90
4411;DHT22;2218;51.408;7.208;2023-05-10T06:22:58;21.20;51.00
4411;DHT22;2218;51.408;7.208;2023-05-10T06:25:25;21.20;50.90
4411;DHT22;2218;51.408;7.208;2023-05-10T06:27:52;21.20;50.90
4411;DHT22;2218;51.408;7.208;2023-05-10T06:30:25;21.20;50.80
4411;DHT22;2218;51.408;7.208;2023-05-10T06:32:53;21.20;51.10
4411;DHT22;2218;51.408;7.208;2023-05-10T06:35:21;21.10;51.20
4411;DHT22;2218;51.408;7.208;2023-05-10T06:37:48;21.00;51.30
4411;DHT22;2218;51.408;7.208;2023-05-10T06:40:16;21.10;51.50
4411;DHT22;2218;51.408;7.208;2023-05-10T06:42:43;21.00;51.60
4411;DHT22;2218;51.408;7.208;2023-05-10T06:45:11;21.00;51.70
4411;DHT22;2218;51.408;7.208;2023-05-10T06:47:41;21.00;51.70
4411;DHT22;2218;51.408;7.208;2023-05-10T06:50:09;21.00;51.80
4411;DHT22;2218;51.408;7.208;2023-05-10T06:52:37;20.90;51.80
4411;DHT22;2218;51.408;7.208;2023-05-10T06:55:04;20.90;51.90
4411;DHT22;2218;51.408;7.208;2023-05-10T06:57:32;21.00;51.70
4411;DHT22;2218;51.408;7.208;2023-05-10T06:59:59;21.00;51.50
4411;DHT22;2218;51.408;7.208;2023-05-10T07:02:27;21.10;51.40
4411;DHT22;2218;51.408;7.208;2023-05-10T07:04:55;21.20;51.40
4411;DHT22;2218;51.408;7.208;2023-05-10T07:07:23;21.20;51.30
4411;DHT22;2218;51.408;7.208;2023-05-10T07:09:50;21.20;51.20
4411;DHT22;2218;51.408;7.208;2023-05-10T07:12:17;21.30;51.30
4411;DHT22;2218;51.408;7.208;2023-05-10T07:14:45;21.30;51.20
4411;DHT22;2218;51.408;7.208;2023-05-10T07:17:12;21.30;51.20
4411;DHT22;2218;51.408;7.208;2023-05-10T07:19:39;21.30;51.20
4411;DHT22;2218;51.408;7.208;2023-05-10T07:22:07;21.30;51.10
4411;DHT22;2218;51.408;7.208;2023-05-10T07:24:34;21.30;51.10
4411;DHT22;2218;51.408;7.208;2023-05-10T07:27:02;21.40;51.10
4411;DHT22;2218;51.408;7.208;2023-05-10T07:29:30;21.40;51.00
4411;DHT22;2218;51.408;7.208;2023-05-10T07:31:58;21.40;51.10
4411;DHT22;2218;51.408;7.208;2023-05-10T07:34:25;21.40;51.10
4411;DHT22;2218;51.408;7.208;2023-05-10T07:36:54;21.40;51.10
4411;DHT22;2218;51.408;7.208;2023-05-10T07:39:24;21.40;51.10
4411;DHT22;2218;51.408;7.208;2023-05-10T07:41:53;21.40;51.10
4411;DHT22;2218;51.408;7.208;2023-05-10T07:44:22;21.40;51.10
4411;DHT22;2218;51.408;7.208;2023-05-10T07:46:50;21.40;51.10
4411;DHT22;2218;51.408;7.208;2023-05-10T07:49:17;21.40;51.10
4411;DHT22;2218;51.408;7.208;2023-05-10T07:51:45;21.50;51.10
4411;DHT22;2218;51.408;7.208;2023-05-10T07:54:14;21.50;50.90
4411;DHT22;2218;51.408;7.208;2023-05-10T07:56:42;21.50;50.80
4411;DHT22;2218;51.408;7.208;2023-05-10T07:59:15;21.60;50.90
4411;DHT22;2218;51.408;7.208;2023-05-10T08:01:44;21.60;50.80
4411;DHT22;2218;51.408;7.208;2023-05-10T08:04:11;21.60;50.90
4411;DHT22;2218;51.408;7.208;2023-05-10T08:06:39;21.60;51.10
4411;DHT22;2218;51.408;7.208;2023-05-10T08:09:06;21.60;51.10
4411;DHT22;2218;51.408;7.208;2023-05-10T08:11:33;21.60;51.10
4411;DHT22;2218;51.408;7.208;2023-05-10T08:14:02;21.60;51.00
4411;DHT22;2218;51.408;7.208;2023-05-10T08:16:29;21.70;51.20
4411;DHT22;2218;51.408;7.208;2023-05-10T08:18:56;21.70;50.90
4411;DHT22;2218;51.408;7.208;2023-05-10T08:21:23;21.70;51.00
4411;DHT22;2218;51.408;7.208;2023-05-10T08:23:50;21.70;51.10
4411;DHT22;2218;51.408;7.208;2023-05-10T08:26:17;21.70;51.20
4411;DHT22;2218;51.408;7.208;2023-05-10T08:28:44;21.70;51.20
4411;DHT22;2218;51.408;7.208;2023-05-10T08:31:12;21.60;51.10
4411;DHT22;2218;51.408;7.208;2023-05-10T08:33:39;21.70;51.20
4411;DHT22;2218;51.408;7.208;2023-05-10T08:36:10;21.60;51.10
4411;DHT22;2218;51.408;7.208;2023-05-10T08:38:39;21.70;51.20
4411;DHT22;2218;51.408;7.208;2023-05-10T08:41:06;21.60;51.10
4411;DHT22;2218;51.408;7.208;2023-05-10T08:43:35;21.60;51.10
4411;DHT22;2218;51.408;7.208;2023-05-10T08:46:05;21.70;51.20
4411;DHT22;2218;51.408;7.208;2023-05-10T08:48:36;21.70;51.00
4411;DHT22;2218;51.408;7.208;2023-05-10T08:51:05;21.70;51.10
4411;DHT22;2218;51.408;7.208;2023-05-10T08:53:36;21.70;50.80
4411;DHT22;2218;51.408;7.208;2023-05-10T08:56:04;21.70;50.80
4411;DHT22;2218;51.408;7.208;2023-05-10T08:58:32;21.80;50.80
4411;DHT22;2218;51.408;7.208;2023-05-10T09:01:00;21.80;50.80
4411;DHT22;2218;51.408;7.208;2023-05-10T09:03:27;21.80;50.70
4411;DHT22;2218;51.408;7.208;2023-05-10T09:05:56;21.80;50.90
4411;DHT22;2218;51.408;7.208;2023-05-10T09:08:23;21.80;50.90
4411;DHT22;2218;51.408;7.208;2023-05-10T09:10:52;21.80;50.60
4411;DHT22;2218;51.408;7.208;2023-05-10T09:13:21;21.90;50.70
4411;DHT22;2218;51.408;7.208;2023-05-10T09:15:49;21.90;50.70
4411;DHT22;2218;51.408;7.208;2023-05-10T09:18:16;21.90;50.50
4411;DHT22;2218;51.408;7.208;2023-05-10T09:20:43;21.90;50.60
4411;DHT22;2218;51.408;7.208;2023-05-10T09:23:12;21.90;50.40
4411;DHT22;2218;51.408;7.208;2023-05-10T09:25:41;21.90;50.80
4411;DHT22;2218;51.408;7.208;2023-05-10T09:28:09;21.90;50.80
4411;DHT22;2218;51.408;7.208;2023-05-10T09:30:36;21.90;50.50
4411;DHT22;2218;51.408;7.208;2023-05-10T09:33:03;21.90;50.70
4411;DHT22;2218;51.408;7.208;2023-05-10T09:35:32;21.90;51.20
4411;DHT22;2218;51.408;7.208;2023-05-10T09:38:02;21.90;50.60
4411;DHT22;2218;51.408;7.208;2023-05-10T09:40:31;22.00;50.80
4411;DHT22;2218;51.408;7.208;2023-05-10T09:43:00;22.00;50.50
4411;DHT22;2218;51.408;7.208;2023-05-10T09:45:29;22.00;50.60
4411;DHT22;2218;51.408;7.208;2023-05-10T09:47:58;22.00;50.40
4411;DHT22;2218;51.408;7.208;2023-05-10T09:50:28;22.00;51.10
4411;DHT22;2218;51.408;7.208;2023-05-10T09:52:56;22.00;50.50
4411;DHT22;2218;51.408;7.208;2023-05-10T09:55:26;22.10;50.40
4411;DHT22;2218;51.408;7.208;2023-05-10T09:58:07;22.10;50.60
4411;DHT22;2218;51.408;7.208;2023-05-10T10:00:36;22.10;50.50
4411;DHT22;2218;51.408;7.208;2023-05-10T10:03:05;22.10;50.50
4411;DHT22;2218;51.408;7.208;2023-05-10T10:05:40;22.10;50.40
4411;DHT22;2218;51.408;7.208;2023-05-10T10:08:08;22.10;50.20
4411;DHT22;2218;51.408;7.208;2023-05-10T10:10:35;22.10;50.10
4411;DHT22;2218;51.408;7.208;2023-05-10T10:13:03;22.10;50.50
4411;DHT22;2218;51.408;7.208;2023-05-10T10:15:32;22.10;50.10
4411;DHT22;2218;51.408;7.208;2023-05-10T10:18:00;22.10;50.00
4411;DHT22;2218;51.408;7.208;2023-05-10T10:20:29;22.10;50.20
4411;DHT22;2218;51.408;7.208;2023-05-10T10:22:56;22.10;50.10
4411;DHT22;2218;51.408;7.208;2023-05-10T10:25:23;22.10;50.10
4411;DHT22;2218;51.408;7.208;2023-05-10T10:28:05;22.10;50.30
4411;DHT22;2218;51.408;7.208;2023-05-10T10:30:41;22.10;50.30
4411;DHT22;2218;51.408;7.208;2023-05-10T10:33:33;22.10;50.00
4411;DHT22;2218;51.408;7.208;2023-05-10T10:36:07;22.10;50.20
4411;DHT22;2218;51.408;7.208;2023-05-10T10:41:30;22.10;50.30
4411;DHT22;2218;51.408;7.208;2023-05-10T10:44:23;22.00;50.30
4411;DHT22;2218;51.408;7.208;2023-05-10T10:47:02;22.10;50.30
4411;DHT22;2218;51.408;7.208;2023-05-10T10:49:32;22.10;50.30
4411;DHT22;2218;51.408;7.208;2023-05-10T10:52:23;22.00;50.20
4411;DHT22;2218;51.408;7.208;2023-05-10T10:54:58;22.00;50.30
4411;DHT22;2218;51.408;7.208;2023-05-10T10:57:28;22.00;50.20
4411;DHT22;2218;51.408;7.208;2023-05-10T11:00:24;22.00;50.20
4411;DHT22;2218;51.408;7.208;2023-05-10T11:02:55;22.00;50.20
4411;DHT22;2218;51.408;7.208;2023-05-10T11:05:45;22.00;50.30
4411;DHT22;2218;51.408;7.208;2023-05-10T11:08:15;22.00;50.30
4411;DHT22;2218;51.408;7.208;2023-05-10T11:10:52;22.00;50.20
4411;DHT22;2218;51.408;7.208;2023-05-10T11:13:33;22.00;50.30
4411;DHT22;2218;51.408;7.208;2023-05-10T11:16:17;22.00;50.40
4411;DHT22;2218;51.408;7.208;2023-05-10T11:18:58;22.00;50.30
4411;DHT22;2218;51.408;7.208;2023-05-10T11:21:27;22.00;50.40
4411;DHT22;2218;51.408;7.208;2023-05-10T11:23:56;21.90;50.30
4411;DHT22;2218;51.408;7.208;2023-05-10T11:26:25;22.00;50.90
4411;DHT22;2218;51.408;7.208;2023-05-10T11:28:56;22.00;50.40
4411;DHT22;2218;51.408;7.208;2023-05-10T11:31:26;22.00;50.30
4411;DHT22;2218;51.408;7.208;2023-05-10T11:33:55;21.90;50.30
4411;DHT22;2218;51.408;7.208;2023-05-10T11:36:24;21.90;50.30
4411;DHT22;2218;51.408;7.208;2023-05-10T11:38:53;21.90;50.40
4411;DHT22;2218;51.408;7.208;2023-05-10T11:41:22;21.90;50.30
4411;DHT22;2218;51.408;7.208;2023-05-10T11:43:51;21.90;50.40
4411;DHT22;2218;51.408;7.208;2023-05-10T11:46:20;21.90;50.30
4411;DHT22;2218;51.408;7.208;2023-05-10T11:48:51;21.90;50.30
4411;DHT22;2218;51.408;7.208;2023-05-10T11:51:20;21.90;50.50
4411;DHT22;2218;51.408;7.208;2023-05-10T11:53:49;21.90;50.50
4411;DHT22;2218;51.408;7.208;2023-05-10T11:56:17;21.90;50.50
4411;DHT22;2218;51.408;7.208;2023-05-10T11:58:44;21.90;50.50
4411;DHT22;2218;51.408;7.208;2023-05-10T12:01:12;21.90;50.50
4411;DHT22;2218;51.408;7.208;2023-05-10T12:03:40;21.90;50.60
4411;DHT22;2218;51.408;7.208;2023-05-10T12:06:09;21.90;50.50
4411;DHT22;2218;51.408;7.208;2023-05-10T12:08:35;21.90;50.50
4411;DHT22;2218;51.408;7.208;2023-05-10T12:11:07;21.90;50.50
4411;DHT22;2218;51.408;7.208;2023-05-10T12:13:40;21.90;50.50
4411;DHT22;2218;51.408;7.208;2023-05-10T12:16:15;21.90;50.60
4411;DHT22;2218;51.408;7.208;2023-05-10T12:18:48;21.90;50.10
4411;DHT22;2218;51.408;7.208;2023-05-10T12:21:18;21.90;50.40
4411;DHT22;2218;51.408;7.208;2023-05-10T12:23:48;21.80;50.30
4411;DHT22;2218;51.408;7.208;2023-05-10T12:26:16;21.90;50.40
4411;DHT22;2218;51.408;7.208;2023-05-10T12:28:43;21.90;50.40
4411;DHT22;2218;51.408;7.208;2023-05-10T12:31:10;21.90;50.40
4411;DHT22;2218;51.408;7.208;2023-05-10T12:33:38;21.90;50.30
4411;DHT22;2218;51.408;7.208;2023-05-10T12:36:08;21.90;50.40
4411;DHT22;2218;51.408;7.208;2023-05-10T12:38:38;21.90;50.30
4411;DHT22;2218;51.408;7.208;2023-05-10T12:41:09;21.90;50.30
4411;DHT22;2218;51.408;7.208;2023-05-10T12:43:38;21.90;50.30
4411;DHT22;2218;51.408;7.208;2023-05-10T12:46:07;21.90;50.30
4411;DHT22;2218;51.408;7.208;2023-05-10T12:48:36;21.90;50.30
4411;DHT22;2218;51.408;7.208;2023-05-10T12:51:04;21.90;50.30
4411;DHT22;2218;51.408;7.208;2023-05-10T12:53:34;21.90;50.20
4411;DHT22;2218;51.408;7.208;2023-05-10T12:56:03;21.90;50.20
4411;DHT22;2218;51.408;7.208;2023-05-10T12:58:31;21.90;50.20
4411;DHT22;2218;51.408;7.208;2023-05-10T13:00:58;21.90;50.20
4411;DHT22;2218;51.408;7.208;2023-05-10T13:03:25;21.90;50.10
4411;DHT22;2218;51.408;7.208;2023-05-10T13:05:52;21.90;50.10
4411;DHT22;2218;51.408;7.208;2023-05-10T13:08:19;21.90;50.20
4411;DHT22;2218;51.408;7.208;2023-05-10T13:10:48;21.90;50.20
4411;DHT22;2218;51.408;7.208;2023-05-10T13:13:15;21.90;50.30
4411;DHT22;2218;51.408;7.208;2023-05-10T13:15:43;21.90;50.20
4411;DHT22;2218;51.408;7.208;2023-05-10T13:18:10;21.90;50.20
4411;DHT22;2218;51.408;7.208;2023-05-10T13:20:37;22.00;50.30
4411;DHT22;2218;51.408;7.208;2023-05-10T13:23:05;22.00;50.30
4411;DHT22;2218;51.408;7.208;2023-05-10T13:25:35;22.00;50.20
4411;DHT22;2218;51.408;7.208;2023-05-10T13:28:04;22.00;50.30
4411;DHT22;2218;51.408;7.208;2023-05-10T13:30:31;22.00;50.30
4411;DHT22;2218;51.408;7.208;2023-05-10T13:32:57;22.00;50.40
4411;DHT22;2218;51.408;7.208;2023-05-10T13:35:25;22.00;50.30
4411;DHT22;2218;51.408;7.208;2023-05-10T13:37:52;22.10;50.50
4411;DHT22;2218;51.408;7.208;2023-05-10T13:40:22;22.10;50.40
4411;DHT22;2218;51.408;7.208;2023-05-10T13:42:49;22.10;50.50
4411;DHT22;2218;51.408;7.208;2023-05-10T13:45:17;22.10;50.50
4411;DHT22;2218;51.408;7.208;2023-05-10T13:47:44;22.10;50.40
4411;DHT22;2218;51.408;7.208;2023-05-10T13:50:11;22.10;50.30
4411;DHT22;2218;51.408;7.208;2023-05-10T13:52:38;22.10;50.30
4411;DHT22;2218;51.408;7.208;2023-05-10T13:55:06;22.10;50.30
4411;DHT22;2218;51.408;7.208;2023-05-10T13:57:33;22.20;50.40
4411;DHT22;2218;51.408;7.208;2023-05-10T14:00:01;22.20;50.30
4411;DHT22;2218;51.408;7.208;2023-05-10T14:02:35;22.20;50.40
4411;DHT22;2218;51.408;7.208;2023-05-10T14:05:02;22.20;50.50
4411;DHT22;2218;51.408;7.208;2023-05-10T14:07:29;22.20;50.50
4411;DHT22;2218;51.408;7.208;2023-05-10T14:09:56;22.20;50.30
4411;DHT22;2218;51.408;7.208;2023-05-10T14:12:23;22.20;50.40
4411;DHT22;2218;51.408;7.208;2023-05-10T14:14:50;22.20;50.30
4411;DHT22;2218;51.408;7.208;2023-05-10T14:17:17;22.30;50.40
4411;DHT22;2218;51.408;7.208;2023-05-10T14:19:46;22.30;50.30
4411;DHT22;2218;51.408;7.208;2023-05-10T14:22:13;22.30;50.40
4411;DHT22;2218;51.408;7.208;2023-05-10T14:24:40;22.30;50.40
4411;DHT22;2218;51.408;7.208;2023-05-10T14:27:07;22.30;50.30
4411;DHT22;2218;51.408;7.208;2023-05-10T14:29:34;22.30;50.60
4411;DHT22;2218;51.408;7.208;2023-05-10T14:32:01;22.30;50.40
4411;DHT22;2218;51.408;7.208;2023-05-10T14:34:28;22.30;50.40
4411;DHT22;2218;51.408;7.208;2023-05-10T14:36:56;22.30;50.50
4411;DHT22;2218;51.408;7.208;2023-05-10T14:39:23;22.30;50.50
4411;DHT22;2218;51.408;7.208;2023-05-10T14:41:50;22.30;50.40
4411;DHT22;2218;51.408;7.208;2023-05-10T14:44:18;22.30;48.70
4411;DHT22;2218;51.408;7.208;2023-05-10T14:46:44;22.30;48.80
4411;DHT22;2218;51.408;7.208;2023-05-10T14:49:12;22.30;47.90
4411;DHT22;2218;51.408;7.208;2023-05-10T14:51:39;22.30;48.30
4411;DHT22;2218;51.408;7.208;2023-05-10T14:54:08;22.30;48.00
4411;DHT22;2218;51.408;7.208;2023-05-10T14:56:35;22.30;48.20
4411;DHT22;2218;51.408;7.208;2023-05-10T14:59:02;22.30;48.70
4411;DHT22;2218;51.408;7.208;2023-05-10T15:01:29;22.30;48.60
4411;DHT22;2218;51.408;7.208;2023-05-10T15:03:58;22.30;48.50
4411;DHT22;2218;51.408;7.208;2023-05-10T15:06:31;22.30;48.30
4411;DHT22;2218;51.408;7.208;2023-05-10T15:08:59;22.30;47.60
4411;DHT22;2218;51.408;7.208;2023-05-10T15:11:28;22.30;47.80
4411;DHT22;2218;51.408;7.208;2023-05-10T15:13:55;22.30;48.00
4411;DHT22;2218;51.408;7.208;2023-05-10T15:16:22;22.40;47.50
4411;DHT22;2218;51.408;7.208;2023-05-10T15:18:49;22.30;47.60
4411;DHT22;2218;51.408;7.208;2023-05-10T15:21:16;22.40;47.40
4411;DHT22;2218;51.408;7.208;2023-05-10T15:23:43;22.40;47.40
4411;DHT22;2218;51.408;7.208;2023-05-10T15:26:10;22.40;47.60
4411;DHT22;2218;51.408;7.208;2023-05-10T15:28:38;22.40;47.30
4411;DHT22;2218;51.408;7.208;2023-05-10T15:31:05;22.40;47.40
4411;DHT22;2218;51.408;7.208;2023-05-10T15:33:32;22.40;47.50
4411;DHT22;2218;51.408;7.208;2023-05-10T15:35:59;22.40;47.60
4411;DHT22;2218;51.408;7.208;2023-05-10T15:38:26;22.40;47.70
4411;DHT22;2218;51.408;7.208;2023-05-10T15:40:56;22.40;47.90
4411;DHT22;2218;51.408;7.208;2023-05-10T15:43:23;22.40;48.20
4411;DHT22;2218;51.408;7.208;2023-05-10T15:45:52;22.40;48.40
4411;DHT22;2218;51.408;7.208;2023-05-10T15:48:18;22.30;48.30
4411;DHT22;2218;51.408;7.208;2023-05-10T15:50:46;22.30;48.50
4411;DHT22;2218;51.408;7.208;2023-05-10T15:53:13;22.30;48.50
4411;DHT22;2218;51.408;7.208;2023-05-10T15:55:39;22.30;48.60
4411;DHT22;2218;51.408;7.208;2023-05-10T15:58:06;22.30;48.60
4411;DHT22;2218;51.408;7.208;2023-05-10T16:00:33;22.30;48.50
4411;DHT22;2218;51.408;7.208;2023-05-10T16:03:02;22.30;48.60
4411;DHT22;2218;51.408;7.208;2023-05-10T16:05:29;22.30;48.80
4411;DHT22;2218;51.408;7.208;2023-05-10T16:07:58;22.20;48.80
4411;DHT22;2218;51.408;7.208;2023-05-10T16:10:25;22.20;48.70
4411;DHT22;2218;51.408;7.208;2023-05-10T16:12:52;22.20;48.80
4411;DHT22;2218;51.408;7.208;2023-05-10T16:15:20;22.20;48.70
4411;DHT22;2218;51.408;7.208;2023-05-10T16:17:47;22.20;48.70